Time;durP1;ratioP1;P1;durP2;ratioP2;P2;SDS_P1;SDS_P2;PMS_P1;PMS_P2;Temp;Humidity;BMP_temperature;BMP_pressure;BME280_temperature;BME280_humidity;BME280_pressure;Samples;Min_cycle;Max_cycle;Signal;HPM_P1;HPM_P2
2023/08/24 00:02:02;;;;;;;9.32;6.70;;;17.90;99.90;;;;;;5082541;28;20050;-86
2023/08/24 00:04:28;;;;;;;9.68;6.93;;;17.90;99.90;;;;;;5083820;28;20060;-85
2023/08/24 00:06:54;;;;;;;9.70;6.60;;;17.90;99.90;;;;;;5084524;28;20099;-85
2023/08/24 00:09:20;;;;;;;9.60;6.43;;;17.80;99.90;;;;;;5081784;28;20081;-86
2023/08/24 00:11:46;;;;;;;13.68;6.38;;;17.70;99.90;;;;;;5078919;28;20146;-85
2023/08/24 00:14:12;;;;;;;13.55;6.45;;;17.70;99.90;;;;;;5083731;28;20105;-85
2023/08/24 00:17:02;;;;;;;12.13;7.05;;;17.60;99.90;;;;;;5060888;28;20024;-85
2023/08/24 00:19:28;;;;;;;11.18;6.60;;;17.50;99.90;;;;;;5083640;28;20131;-85
2023/08/24 00:21:54;;;;;;;9.02;6.55;;;17.50;99.90;;;;;;5067440;28;20115;-86
2023/08/24 00:24:19;;;;;;;10.00;5.72;;;17.50;99.90;;;;;;5062097;28;20380;-85
2023/08/24 00:26:45;;;;;;;11.70;6.88;;;17.40;99.90;;;;;;5080763;28;20031;-85
2023/08/24 00:29:11;;;;;;;10.63;6.70;;;17.50;99.90;;;;;;5078982;28;20478;-85
2023/08/24 00:31:37;;;;;;;10.43;6.90;;;17.50;99.90;;;;;;5065381;28;20046;-85
2023/08/24 00:34:03;;;;;;;8.68;6.82;;;17.50;99.90;;;;;;5065830;28;20034;-85
2023/08/24 00:36:29;;;;;;;12.13;7.00;;;17.50;99.90;;;;;;5082932;28;20036;-86
2023/08/24 00:38:54;;;;;;;12.45;7.18;;;17.50;99.90;;;;;;5084239;28;20031;-86
2023/08/24 00:41:21;;;;;;;7.75;6.95;;;17.60;99.90;;;;;;5060741;28;20016;-85
2023/08/24 00:43:47;;;;;;;7.25;5.72;;;17.70;99.90;;;;;;5085704;28;20034;-85
2023/08/24 00:46:13;;;;;;;9.13;6.30;;;17.70;99.90;;;;;;5088213;28;20029;-85
2023/08/24 00:48:39;;;;;;;8.57;6.30;;;17.70;99.90;;;;;;5065117;28;20032;-83
2023/08/24 00:51:04;;;;;;;7.80;6.07;;;17.80;99.90;;;;;;5078354;28;20028;-86
2023/08/24 00:53:32;;;;;;;9.43;5.80;;;17.80;99.90;;;;;;5066649;28;20036;-85
2023/08/24 00:55:59;;;;;;;11.90;6.18;;;17.80;99.90;;;;;;5079022;28;20596;-85
2023/08/24 00:58:27;;;;;;;11.18;5.80;;;17.80;99.90;;;;;;5067943;28;20028;-86
2023/08/24 01:00:55;;;;;;;6.45;5.25;;;17.80;99.90;;;;;;5079160;28;20031;-86
2023/08/24 01:03:24;;;;;;;11.45;5.47;;;17.90;99.90;;;;;;5084999;28;20053;-85
2023/08/24 01:05:51;;;;;;;8.73;5.40;;;17.90;99.90;;;;;;5063991;28;20055;-84
2023/08/24 01:08:18;;;;;;;7.50;5.38;;;17.90;99.90;;;;;;5062664;28;20061;-85
2023/08/24 01:10:55;;;;;;;6.18;5.07;;;18.00;99.90;;;;;;5081720;28;20499;-85
2023/08/24 01:13:37;;;;;;;9.30;4.65;;;18.00;99.90;;;;;;5079233;28;20077;-84
2023/08/24 01:16:15;;;;;;;8.82;5.72;;;17.90;99.90;;;;;;5061577;28;20772;-84
2023/08/24 01:18:42;;;;;;;12.70;5.70;;;17.90;99.90;;;;;;5064565;28;20063;-84
2023/08/24 01:21:09;;;;;;;9.18;4.90;;;17.80;99.90;;;;;;5099395;28;20467;-84
2023/08/24 01:24:10;;;;;;;6.43;4.75;;;17.80;99.90;;;;;;5074557;28;20036;-85
2023/08/24 01:26:37;;;;;;;10.35;5.30;;;17.70;99.90;;;;;;5021583;28;20426;-85
2023/08/24 01:29:04;;;;;;;5.18;4.22;;;17.60;99.90;;;;;;5069042;28;20494;-85
2023/08/24 01:31:30;;;;;;;5.75;4.80;;;17.70;99.90;;;;;;5076921;28;20467;-85
2023/08/24 01:33:55;;;;;;;10.27;4.70;;;17.60;99.90;;;;;;5069853;28;20035;-85
2023/08/24 01:36:21;;;;;;;9.15;4.45;;;17.50;99.90;;;;;;5062033;28;20028;-85
2023/08/24 01:38:58;;;;;;;5.22;4.40;;;17.50;99.90;;;;;;5065095;28;20031;-85
2023/08/24 01:41:28;;;;;;;6.20;5.00;;;17.40;99.90;;;;;;5064227;28;20048;-85
2023/08/24 01:43:56;;;;;;;8.30;4.65;;;17.30;99.90;;;;;;5082083;28;20123;-85
2023/08/24 01:46:24;;;;;;;6.10;4.45;;;17.20;99.90;;;;;;5080688;28;20430;-85
2023/08/24 01:48:51;;;;;;;7.15;4.80;;;17.10;99.90;;;;;;5065758;28;20102;-85
2023/08/24 01:51:19;;;;;;;8.68;5.15;;;17.00;99.90;;;;;;5087366;28;20023;-85
2023/08/24 01:53:45;;;;;;;11.32;5.30;;;17.00;99.90;;;;;;5066676;28;20399;-85
2023/08/24 01:56:13;;;;;;;8.18;5.05;;;16.90;99.90;;;;;;5108832;28;20428;-85
2023/08/24 01:58:39;;;;;;;13.35;4.50;;;16.90;99.90;;;;;;5068147;28;20506;-85
2023/08/24 02:01:06;;;;;;;7.05;4.10;;;16.80;99.90;;;;;;5067524;28;20020;-85
2023/08/24 02:03:32;;;;;;;6.05;4.78;;;16.80;99.90;;;;;;5065454;28;20020;-85
2023/08/24 02:05:58;;;;;;;6.25;4.40;;;16.80;99.90;;;;;;5068811;28;20016;-85
2023/08/24 02:08:24;;;;;;;7.55;4.63;;;16.70;99.90;;;;;;5067784;28;20081;-85
2023/08/24 02:10:50;;;;;;;6.30;4.22;;;16.70;99.90;;;;;;5086534;28;20036;-85
2023/08/24 02:13:16;;;;;;;5.45;4.30;;;16.70;99.90;;;;;;5069796;28;20120;-85
2023/08/24 02:15:42;;;;;;;9.27;4.75;;;16.80;99.90;;;;;;5079172;28;20062;-84
2023/08/24 02:18:08;;;;;;;7.95;4.18;;;16.80;99.90;;;;;;5072099;28;20032;-84
2023/08/24 02:20:38;;;;;;;7.05;4.25;;;16.90;99.90;;;;;;5080611;28;20028;-85
2023/08/24 02:23:04;;;;;;;9.88;4.28;;;17.10;99.90;;;;;;5065916;28;20511;-85
2023/08/24 02:25:30;;;;;;;6.63;3.72;;;17.20;99.90;;;;;;5065951;28;20024;-85
2023/08/24 02:27:55;;;;;;;5.65;3.88;;;17.30;99.90;;;;;;5085516;28;20035;-85
2023/08/24 02:30:21;;;;;;;5.15;4.03;;;17.40;99.90;;;;;;5083894;28;20070;-85
2023/08/24 02:32:47;;;;;;;6.30;3.80;;;17.40;99.90;;;;;;5071042;28;20028;-85
2023/08/24 02:35:15;;;;;;;6.13;3.53;;;17.40;99.90;;;;;;5068791;28;20032;-85
2023/08/24 02:37:41;;;;;;;7.25;3.80;;;17.40;99.90;;;;;;5082020;28;20125;-85
2023/08/24 02:40:09;;;;;;;8.40;4.35;;;17.40;99.90;;;;;;5086245;28;20471;-85
2023/08/24 02:42:35;;;;;;;6.13;3.50;;;17.50;99.90;;;;;;5066967;28;20055;-85
2023/08/24 02:45:01;;;;;;;4.65;3.53;;;17.50;99.90;;;;;;5079984;28;20400;-85
2023/08/24 02:47:26;;;;;;;7.55;3.53;;;17.50;99.90;;;;;;5069137;28;20048;-85
2023/08/24 02:49:52;;;;;;;5.40;3.80;;;17.50;99.90;;;;;;5080656;28;20121;-84
2023/08/24 02:52:18;;;;;;;4.70;3.45;;;17.50;99.90;;;;;;5087681;28;20023;-85
2023/08/24 02:54:44;;;;;;;7.70;3.30;;;17.50;99.90;;;;;;5064536;28;20024;-85
2023/08/24 02:57:09;;;;;;;4.43;3.67;;;17.70;99.90;;;;;;5065345;28;20096;-85
2023/08/24 02:59:35;;;;;;;5.32;3.60;;;17.70;99.90;;;;;;5064357;28;20067;-85
2023/08/24 03:02:01;;;;;;;11.70;3.60;;;17.90;99.90;;;;;;5083299;28;20024;-85
2023/08/24 03:04:27;;;;;;;8.68;3.67;;;17.90;99.90;;;;;;5082530;28;20020;-85
2023/08/24 03:06:52;;;;;;;8.52;3.92;;;17.90;99.90;;;;;;5079991;28;20138;-85
2023/08/24 03:09:18;;;;;;;8.50;3.95;;;18.00;99.90;;;;;;5078978;28;20031;-85
2023/08/24 03:11:57;;;;;;;6.18;3.83;;;18.00;99.90;;;;;;5064956;28;20059;-85
2023/08/24 03:14:22;;;;;;;10.88;4.32;;;18.00;99.90;;;;;;5063343;28;20024;-85
2023/08/24 03:16:48;;;;;;;5.40;3.28;;;18.00;99.90;;;;;;5068195;28;20104;-85
2023/08/24 03:19:17;;;;;;;4.32;3.38;;;18.00;99.90;;;;;;5065493;28;20031;-85
2023/08/24 03:21:44;;;;;;;4.07;3.30;;;18.00;99.90;;;;;;5065957;28;20020;-84
2023/08/24 03:24:09;;;;;;;15.68;3.65;;;18.00;99.90;;;;;;5063482;28;20066;-85
2023/08/24 03:26:35;;;;;;;10.10;3.58;;;18.00;99.90;;;;;;5067990;28;20031;-85
2023/08/24 03:29:01;;;;;;;8.55;3.28;;;18.10;99.90;;;;;;5064759;28;20063;-85
2023/08/24 03:31:27;;;;;;;6.70;3.40;;;18.20;99.90;;;;;;5070303;28;20023;-85
2023/08/24 03:33:53;;;;;;;4.45;3.05;;;18.30;99.90;;;;;;5065716;28;20028;-85
2023/08/24 03:36:19;;;;;;;4.85;2.78;;;18.40;99.90;;;;;;5081263;28;20413;-85
2023/08/24 03:38:45;;;;;;;3.63;2.47;;;18.40;99.90;;;;;;5083425;28;20042;-85
2023/08/24 03:41:11;;;;;;;4.28;3.10;;;18.50;99.90;;;;;;5083101;28;20661;-84
2023/08/24 03:43:39;;;;;;;6.95;3.10;;;18.60;99.90;;;;;;5077305;28;20028;-85
2023/08/24 03:46:05;;;;;;;3.75;2.72;;;18.70;99.90;;;;;;5083906;28;20434;-85
2023/08/24 03:48:34;;;;;;;5.35;2.60;;;18.80;99.90;;;;;;5062318;28;20032;-85
2023/08/24 03:51:00;;;;;;;4.20;3.00;;;18.80;99.90;;;;;;5069335;28;20020;-85
2023/08/24 03:53:26;;;;;;;5.18;2.90;;;18.90;99.90;;;;;;5064638;28;20032;-85
2023/08/24 03:55:52;;;;;;;6.63;3.20;;;19.00;99.90;;;;;;5065974;28;20081;-85
2023/08/24 03:58:20;;;;;;;3.83;2.95;;;19.00;99.90;;;;;;5067743;28;20493;-85
2023/08/24 04:00:47;;;;;;;5.15;3.05;;;19.10;99.90;;;;;;5066748;28;20031;-84
2023/08/24 04:03:13;;;;;;;8.18;3.38;;;19.10;99.90;;;;;;5065665;28;20413;-85
2023/08/24 04:05:38;;;;;;;5.20;3.40;;;19.20;99.90;;;;;;5076860;28;20039;-85
2023/08/24 04:08:05;;;;;;;8.75;3.78;;;19.20;99.90;;;;;;5067277;28;20055;-84
2023/08/24 04:10:30;;;;;;;6.97;3.10;;;19.20;99.90;;;;;;5061305;28;20089;-85
2023/08/24 04:12:58;;;;;;;7.32;3.83;;;19.30;99.90;;;;;;5068482;28;20106;-85
2023/08/24 04:15:39;;;;;;;4.93;3.70;;;19.30;99.90;;;;;;5065017;28;20530;-84
2023/08/24 04:18:05;;;;;;;7.90;3.40;;;19.40;99.90;;;;;;5070825;28;20078;-84
2023/08/24 04:20:31;;;;;;;5.93;3.60;;;19.50;99.90;;;;;;5063444;28;20052;-85
2023/08/24 04:22:56;;;;;;;5.88;3.95;;;19.50;99.90;;;;;;5084563;28;20107;-85
2023/08/24 04:25:22;;;;;;;6.22;3.72;;;19.50;99.90;;;;;;5080653;28;20127;-85
2023/08/24 04:27:47;;;;;;;8.07;3.58;;;19.50;99.90;;;;;;5078098;28;20040;-85
2023/08/24 04:30:13;;;;;;;6.88;3.75;;;19.60;99.90;;;;;;5058546;28;20040;-86
2023/08/24 04:32:39;;;;;;;5.38;4.25;;;19.60;99.90;;;;;;5069588;28;20058;-86
2023/08/24 04:35:05;;;;;;;7.07;3.97;;;19.60;99.90;;;;;;5082645;28;20060;-87
2023/08/24 04:37:31;;;;;;;7.70;4.13;;;19.60;99.90;;;;;;5082740;28;20081;-87
2023/08/24 04:39:57;;;;;;;9.82;4.30;;;19.60;99.90;;;;;;5058836;28;20413;-86
2023/08/24 04:42:22;;;;;;;10.68;4.03;;;19.60;99.90;;;;;;5084966;28;20031;-87
2023/08/24 04:44:50;;;;;;;10.10;4.32;;;19.60;99.90;;;;;;5077310;28;20016;-87
2023/08/24 04:47:15;;;;;;;5.28;3.78;;;19.50;99.90;;;;;;5069773;28;20476;-86
2023/08/24 04:49:41;;;;;;;8.00;3.92;;;19.50;99.90;;;;;;5061792;28;20028;-87
2023/08/24 04:52:07;;;;;;;5.95;4.18;;;19.50;99.90;;;;;;5064725;28;20808;-86
2023/08/24 04:54:33;;;;;;;8.85;3.42;;;19.50;99.90;;;;;;5078693;28;20039;-86
2023/08/24 04:56:59;;;;;;;10.68;3.88;;;19.60;99.90;;;;;;5082995;28;20896;-86
2023/08/24 04:59:25;;;;;;;5.30;3.63;;;19.60;99.90;;;;;;5098171;28;20119;-87
2023/08/24 05:01:50;;;;;;;7.07;3.50;;;19.50;99.90;;;;;;5104008;28;20030;-86
2023/08/24 05:04:16;;;;;;;6.82;3.60;;;19.60;99.90;;;;;;5080930;28;20032;-86
2023/08/24 05:06:41;;;;;;;11.20;3.63;;;19.70;99.90;;;;;;5080467;28;20035;-86
2023/08/24 05:09:08;;;;;;;9.38;3.50;;;19.70;99.90;;;;;;5082580;28;20043;-86
2023/08/24 05:11:34;;;;;;;4.97;3.63;;;19.60;99.90;;;;;;5078450;28;20073;-86
2023/08/24 05:13:59;;;;;;;6.50;3.95;;;19.70;99.90;;;;;;5059101;28;20075;-86
2023/08/24 05:16:25;;;;;;;11.32;5.30;;;19.70;99.90;;;;;;5061690;28;20039;-86
2023/08/24 05:18:51;;;;;;;7.75;3.55;;;19.70;99.90;;;;;;5076896;28;20114;-86
2023/08/24 05:21:44;;;;;;;4.80;3.47;;;19.80;99.90;;;;;;5104390;28;20012;-86
2023/08/24 05:24:10;;;;;;;10.98;4.10;;;19.90;99.90;;;;;;5081739;28;20023;-86
2023/08/24 05:26:35;;;;;;;7.63;3.55;;;20.00;99.90;;;;;;5078153;28;20483;-86
2023/08/24 05:29:01;;;;;;;10.48;4.05;;;20.10;99.90;;;;;;5083326;28;20028;-86
2023/08/24 05:31:27;;;;;;;12.65;4.35;;;20.30;99.90;;;;;;5064147;28;20031;-86
2023/08/24 05:33:52;;;;;;;9.73;4.38;;;20.30;99.90;;;;;;5099680;28;20028;-86
2023/08/24 05:36:52;;;;;;;7.90;4.22;;;20.40;99.90;;;;;;5078997;28;20382;-86
2023/08/24 05:39:18;;;;;;;9.55;4.32;;;20.50;99.90;;;;;;5055227;28;20038;-87
2023/08/24 05:41:43;;;;;;;5.45;3.78;;;20.50;99.90;;;;;;5063560;28;20570;-85
2023/08/24 05:44:09;;;;;;;4.60;3.75;;;20.60;99.90;;;;;;5061612;28;20402;-87
2023/08/24 05:46:35;;;;;;;12.68;4.07;;;20.60;99.90;;;;;;5065627;28;20028;-86
2023/08/24 05:49:00;;;;;;;9.15;4.22;;;20.70;99.90;;;;;;5062254;28;20541;-87
2023/08/24 05:51:26;;;;;;;8.85;3.80;;;20.80;99.90;;;;;;5067582;28;20038;-87
2023/08/24 05:53:55;;;;;;;9.50;3.97;;;20.80;99.90;;;;;;5064501;28;20028;-86
2023/08/24 05:56:24;;;;;;;7.47;3.47;;;20.90;99.90;;;;;;5062159;28;20770;-87
2023/08/24 05:58:50;;;;;;;5.55;3.10;;;20.90;99.90;;;;;;5066075;28;20084;-86
2023/08/24 06:01:15;;;;;;;7.18;3.45;;;21.00;99.90;;;;;;5060441;28;20024;-87
2023/08/24 06:03:41;;;;;;;6.78;4.28;;;21.10;99.90;;;;;;5067103;28;20020;-86
2023/08/24 06:06:08;;;;;;;7.15;4.05;;;21.10;99.90;;;;;;5062193;28;20020;-87
2023/08/24 06:08:34;;;;;;;6.78;3.88;;;21.10;99.90;;;;;;5061136;28;20043;-87
2023/08/24 06:11:00;;;;;;;8.32;3.92;;;21.10;99.90;;;;;;5063596;28;20032;-87
2023/08/24 06:13:26;;;;;;;7.10;3.83;;;21.10;99.90;;;;;;5080651;28;20078;-86
2023/08/24 06:15:54;;;;;;;8.40;3.38;;;21.10;99.90;;;;;;5065360;28;20092;-86
2023/08/24 06:18:20;;;;;;;6.07;4.05;;;21.10;99.90;;;;;;5082999;28;20036;-86
2023/08/24 06:20:46;;;;;;;6.05;4.22;;;21.20;99.90;;;;;;5081674;28;20039;-86
2023/08/24 06:23:13;;;;;;;8.00;3.67;;;21.30;99.90;;;;;;5061877;28;20028;-86
2023/08/24 06:25:39;;;;;;;6.35;3.80;;;21.30;99.90;;;;;;5083811;28;20403;-86
2023/08/24 06:28:05;;;;;;;5.18;3.72;;;21.30;99.90;;;;;;5063429;28;20028;-86
2023/08/24 06:30:36;;;;;;;9.45;4.15;;;21.30;99.90;;;;;;5068737;28;20444;-87
2023/08/24 06:33:03;;;;;;;5.80;3.28;;;21.30;99.90;;;;;;5080553;28;20105;-86
2023/08/24 06:35:29;;;;;;;8.95;3.72;;;21.40;99.90;;;;;;5082907;28;20054;-87
2023/08/24 06:37:55;;;;;;;8.43;3.80;;;21.60;99.90;;;;;;5085789;28;20724;-86
2023/08/24 06:40:20;;;;;;;6.00;3.80;;;21.70;99.90;;;;;;5084090;28;20450;-86
2023/08/24 06:42:46;;;;;;;8.43;3.75;;;21.80;99.90;;;;;;5063394;28;20024;-86
2023/08/24 06:45:12;;;;;;;4.30;3.33;;;22.00;99.90;;;;;;5084828;28;20462;-87
2023/08/24 06:47:39;;;;;;;6.70;3.53;;;22.20;99.90;;;;;;5065615;28;20031;-87
2023/08/24 06:50:06;;;;;;;6.32;3.30;;;22.30;99.90;;;;;;5069039;28;20463;-87
2023/08/24 06:52:32;;;;;;;7.35;3.60;;;22.40;99.90;;;;;;5067596;28;20028;-86
2023/08/24 06:54:59;;;;;;;8.27;3.33;;;22.30;99.90;;;;;;5084410;28;20078;-85
2023/08/24 06:57:24;;;;;;;5.28;3.22;;;22.30;99.90;;;;;;5065210;28;20034;-87
2023/08/24 06:59:50;;;;;;;9.98;3.60;;;22.40;99.90;;;;;;5085217;28;20052;-87
2023/08/24 07:02:17;;;;;;;6.93;2.83;;;22.50;99.90;;;;;;5065195;28;20059;-86
2023/08/24 07:04:43;;;;;;;6.85;2.97;;;22.40;99.90;;;;;;5087336;28;20027;-86
2023/08/24 07:07:09;;;;;;;8.55;3.28;;;22.50;99.90;;;;;;5065746;28;20058;-87
2023/08/24 07:09:35;;;;;;;5.97;3.00;;;22.60;99.90;;;;;;5064776;28;20046;-87
2023/08/24 07:12:06;;;;;;;10.55;3.63;;;22.60;99.90;;;;;;5084522;28;20434;-87
2023/08/24 07:14:33;;;;;;;4.88;2.95;;;22.60;99.90;;;;;;5066843;28;20038;-87
2023/08/24 07:16:59;;;;;;;6.53;3.05;;;22.70;99.90;;;;;;5086426;28;20024;-87
2023/08/24 07:19:24;;;;;;;6.90;3.08;;;22.80;99.90;;;;;;5068407;28;20035;-86
2023/08/24 07:21:50;;;;;;;7.53;3.00;;;22.90;99.90;;;;;;5079568;28;20054;-87
2023/08/24 07:24:19;;;;;;;10.10;3.10;;;22.90;99.90;;;;;;5069508;28;20367;-86
2023/08/24 07:26:45;;;;;;;5.22;2.75;;;23.00;99.90;;;;;;5082154;28;20031;-86
2023/08/24 07:29:11;;;;;;;7.80;3.40;;;23.00;99.90;;;;;;5066853;28;20024;-86
2023/08/24 07:31:37;;;;;;;8.18;3.05;;;23.00;99.90;;;;;;5064413;28;20031;-87
2023/08/24 07:34:03;;;;;;;11.60;3.60;;;23.00;99.90;;;;;;5086131;28;20031;-87
2023/08/24 07:36:30;;;;;;;11.93;3.88;;;23.00;99.90;;;;;;5082429;28;20047;-87
2023/08/24 07:38:56;;;;;;;9.27;3.40;;;22.90;99.90;;;;;;5088212;28;20129;-86
2023/08/24 07:41:21;;;;;;;7.18;3.17;;;22.80;99.90;;;;;;5082976;28;20059;-86
2023/08/24 07:43:47;;;;;;;4.57;2.72;;;22.70;99.90;;;;;;5082478;28;20092;-87
2023/08/24 07:46:34;;;;;;;4.40;2.80;;;23.00;99.90;;;;;;5084508;28;20024;-87
2023/08/24 07:49:00;;;;;;;4.35;2.80;;;23.50;99.90;;;;;;5065080;28;20039;-86
2023/08/24 07:51:26;;;;;;;7.55;3.22;;;23.70;99.90;;;;;;5062400;28;20040;-86
2023/08/24 07:53:52;;;;;;;6.93;3.17;;;23.80;99.90;;;;;;5085822;28;20031;-87
2023/08/24 07:56:49;;;;;;;5.25;3.00;;;23.90;99.90;;;;;;5063567;28;20024;-87
2023/08/24 07:59:15;;;;;;;10.60;4.00;;;24.20;99.90;;;;;;5076717;28;20032;-87
2023/08/24 08:01:40;;;;;;;4.28;2.83;;;24.50;99.90;;;;;;5067028;28;20394;-87
2023/08/24 08:04:06;;;;;;;8.63;2.75;;;24.60;99.90;;;;;;5067910;28;20036;-87
2023/08/24 08:06:32;;;;;;;8.45;2.83;;;25.00;99.90;;;;;;5067771;28;20050;-87
2023/08/24 08:08:58;;;;;;;11.45;2.83;;;25.30;99.90;;;;;;5062559;28;20077;-87
2023/08/24 08:11:23;;;;;;;3.90;2.55;;;25.60;99.90;;;;;;5069059;28;20030;-87
2023/08/24 08:13:49;;;;;;;6.05;2.70;;;26.00;99.90;;;;;;5100127;28;20601;-87
2023/08/24 08:16:15;;;;;;;7.88;2.50;;;26.10;99.90;;;;;;5083740;28;20043;-86
2023/08/24 08:18:40;;;;;;;6.38;2.35;;;25.90;99.90;;;;;;5080651;28;20042;-87
2023/08/24 08:21:11;;;;;;;18.48;4.13;;;25.90;99.90;;;;;;5068630;28;20899;-88
2023/08/24 08:23:37;;;;;;;;;;;26.20;99.90;;;;;;5064978;28;20031;-87
2023/08/24 08:26:03;;;;;;;7.35;2.72;;;26.40;99.90;;;;;;5071090;28;19908;-87
2023/08/24 08:28:28;;;;;;;7.18;2.67;;;26.50;99.90;;;;;;5066153;28;20735;-87
2023/08/24 08:30:54;;;;;;;7.60;2.85;;;26.50;99.90;;;;;;5064242;28;20388;-86
2023/08/24 08:33:21;;;;;;;7.35;3.22;;;26.60;99.90;;;;;;5066295;28;20556;-87
2023/08/24 08:35:47;;;;;;;12.23;2.80;;;26.60;99.90;;;;;;5066911;28;20072;-87
2023/08/24 08:38:13;;;;;;;7.68;2.83;;;26.50;99.90;;;;;;5059617;28;20111;-87
2023/08/24 08:40:41;;;;;;;10.48;2.83;;;26.20;99.90;;;;;;5068430;28;20403;-87
2023/08/24 08:43:06;;;;;;;10.45;2.58;;;26.10;99.90;;;;;;5061711;28;20020;-87
2023/08/24 08:45:33;;;;;;;6.65;2.67;;;26.00;99.90;;;;;;5086880;28;20038;-87
2023/08/24 08:48:00;;;;;;;7.47;2.90;;;26.20;99.90;;;;;;5080683;28;20028;-87
2023/08/24 08:50:26;;;;;;;5.43;2.92;;;26.50;99.90;;;;;;5065877;28;20066;-88
2023/08/24 08:52:51;;;;;;;5.70;2.90;;;26.60;99.90;;;;;;5062774;28;20433;-86
2023/08/24 08:55:18;;;;;;;6.57;2.92;;;26.80;99.90;;;;;;5068320;28;20110;-88
2023/08/24 08:57:46;;;;;;;7.07;2.78;;;27.10;99.90;;;;;;5063028;28;20044;-87
2023/08/24 09:00:16;;;;;;;6.10;2.92;;;27.30;99.90;;;;;;5086575;28;20808;-87
2023/08/24 09:02:44;;;;;;;11.07;3.38;;;27.80;99.90;;;;;;5081336;28;20471;-87
2023/08/24 09:05:11;;;;;;;4.25;2.42;;;28.30;99.90;;;;;;5055325;28;20028;-87
2023/08/24 09:07:39;;;;;;;5.70;2.50;;;29.20;99.90;;;;;;5066435;28;20032;-87
2023/08/24 09:10:07;;;;;;;6.00;2.45;;;29.60;99.90;;;;;;5081689;28;20020;-87
2023/08/24 09:12:33;;;;;;;9.20;2.55;;;29.50;99.90;;;;;;5067815;28;20036;-88
2023/08/24 09:14:59;;;;;;;10.32;2.55;;;30.00;99.90;;;;;;5066598;28;20439;-87
2023/08/24 09:17:27;;;;;;;5.07;2.95;;;29.80;99.90;;;;;;5060071;28;20024;-87
2023/08/24 09:20:00;;;;;;;13.00;3.00;;;30.20;99.90;;;;;;5103752;28;20074;-87
2023/08/24 09:22:26;;;;;;;6.80;2.75;;;30.20;99.90;;;;;;5080184;28;20716;-86
2023/08/24 09:24:54;;;;;;;12.18;3.00;;;29.60;99.90;;;;;;5061948;28;20032;-86
2023/08/24 09:27:21;;;;;;;5.53;3.03;;;29.30;99.90;;;;;;5065143;28;20509;-86
2023/08/24 09:29:52;;;;;;;5.78;2.63;;;29.80;99.90;;;;;;5063898;28;20519;-87
2023/08/24 09:32:27;;;;;;;4.38;2.72;;;30.40;99.90;;;;;;5066708;28;20020;-86
2023/08/24 09:34:53;;;;;;;10.52;3.30;;;30.90;99.90;;;;;;5064573;28;20040;-86
2023/08/24 09:37:19;;;;;;;9.05;2.65;;;31.20;99.90;;;;;;5100127;28;20378;-86
2023/08/24 09:39:46;;;;;;;6.05;2.75;;;31.00;99.90;;;;;;5057931;28;20035;-87
2023/08/24 09:42:13;;;;;;;11.82;3.75;;;31.40;99.90;;;;;;5066629;28;20028;-87
2023/08/24 09:44:45;;;;;;;8.07;3.38;;;31.00;98.80;;;;;;5062975;28;20399;-87
2023/08/24 09:47:11;;;;;;;10.10;3.33;;;30.90;99.20;;;;;;5071451;28;20036;-87
2023/08/24 09:49:36;;;;;;;12.05;3.40;;;30.60;98.80;;;;;;5080570;28;20032;-88
2023/08/24 09:52:06;;;;;;;8.57;2.97;;;30.40;99.90;;;;;;5062141;28;20028;-86
2023/08/24 09:54:35;;;;;;;12.48;3.50;;;29.80;99.90;;;;;;5082153;28;20043;-88
2023/08/24 09:57:02;;;;;;;10.30;3.55;;;29.40;99.90;;;;;;5077770;28;20028;-88
2023/08/24 09:59:31;;;;;;;6.50;3.50;;;29.00;99.90;;;;;;5058741;28;20470;-88
2023/08/24 10:01:57;;;;;;;8.05;3.55;;;29.00;99.90;;;;;;5067622;28;20466;-87
2023/08/24 10:04:29;;;;;;;11.10;3.70;;;29.00;99.90;;;;;;5060756;28;20035;-87
2023/08/24 10:07:20;;;;;;;5.95;3.42;;;29.10;99.90;;;;;;5069284;28;20489;-87
2023/08/24 10:10:06;;;;;;;8.18;4.43;;;29.50;99.90;;;;;;5070108;28;20030;-87
2023/08/24 10:12:41;;;;;;;6.03;3.80;;;29.60;99.90;;;;;;5081059;28;20024;-87
2023/08/24 10:15:08;;;;;;;7.00;3.65;;;29.40;99.90;;;;;;5087378;28;20486;-87
2023/08/24 10:17:36;;;;;;;6.82;4.22;;;29.30;99.90;;;;;;5066968;28;20035;-86
2023/08/24 10:20:38;;;;;;;8.18;3.53;;;28.80;99.90;;;;;;5063979;28;20032;-87
2023/08/24 10:23:04;;;;;;;11.57;3.88;;;28.60;99.90;;;;;;5083426;28;20110;-87
2023/08/24 10:25:30;;;;;;;6.70;3.40;;;28.90;99.90;;;;;;5081887;28;20075;-86
2023/08/24 10:27:57;;;;;;;7.85;3.45;;;28.90;99.90;;;;;;5089562;28;20039;-87
2023/08/24 10:30:23;;;;;;;6.88;3.65;;;28.90;99.90;;;;;;5065689;28;20031;-86
2023/08/24 10:32:53;;;;;;;14.05;4.15;;;28.70;99.90;;;;;;5066149;28;20035;-86
2023/08/24 10:35:20;;;;;;;6.63;3.88;;;28.40;99.90;;;;;;5066673;28;20035;-86
2023/08/24 10:37:46;;;;;;;8.00;3.92;;;28.40;99.90;;;;;;5084933;28;20042;-86
2023/08/24 10:40:13;;;;;;;10.75;5.03;;;28.50;99.90;;;;;;5083269;28;20025;-87
2023/08/24 10:43:19;;;;;;;7.10;3.83;;;28.70;99.90;;;;;;5081052;28;20024;-87
2023/08/24 10:46:28;;;;;;;6.70;4.07;;;28.80;99.90;;;;;;5073531;28;20054;-87
2023/08/24 10:49:04;;;;;;;9.45;4.13;;;28.70;99.90;;;;;;5081367;28;20023;-87
2023/08/24 10:51:31;;;;;;;7.75;4.03;;;28.40;99.90;;;;;;5096054;28;20060;-87
2023/08/24 10:53:59;;;;;;;11.27;4.07;;;28.60;99.90;;;;;;5065495;28;20036;-88
2023/08/24 10:56:40;;;;;;;7.55;4.30;;;29.10;99.90;;;;;;5067416;28;20028;-87
2023/08/24 10:59:12;;;;;;;10.18;4.25;;;29.40;99.90;;;;;;5065172;28;20063;-87
2023/08/24 11:01:40;;;;;;;7.93;4.00;;;29.30;99.90;;;;;;5070130;28;20059;-88
2023/08/24 11:04:07;;;;;;;8.73;3.75;;;29.50;99.90;;;;;;5082089;28;20661;-87
2023/08/24 11:06:34;;;;;;;5.25;3.42;;;29.80;99.90;;;;;;5066327;28;20036;-87
2023/08/24 11:09:13;;;;;;;7.55;4.40;;;30.30;99.90;;;;;;5064509;28;20118;-87
2023/08/24 11:11:40;;;;;;;6.50;3.55;;;30.30;99.90;;;;;;5072819;28;20085;-86
2023/08/24 11:14:22;;;;;;;9.52;3.80;;;30.30;99.90;;;;;;5065736;28;20127;-87
2023/08/24 11:16:49;;;;;;;14.27;4.45;;;30.10;99.90;;;;;;5063205;28;20024;-87
2023/08/24 11:19:15;;;;;;;8.38;3.50;;;30.40;99.90;;;;;;5067882;28;20055;-88
2023/08/24 11:21:43;;;;;;;6.95;3.63;;;30.70;99.90;;;;;;5082817;28;20028;-87
2023/08/24 11:24:17;;;;;;;10.63;3.70;;;30.90;99.90;;;;;;5068681;28;20396;-88
2023/08/24 11:26:46;;;;;;;6.60;3.80;;;31.10;99.70;;;;;;5083880;28;20387;-87
2023/08/24 11:29:13;;;;;;;9.43;3.65;;;31.20;99.90;;;;;;5067059;28;20032;-88
2023/08/24 11:31:39;;;;;;;10.85;3.83;;;31.60;99.90;;;;;;5084935;28;20039;-87
2023/08/24 11:34:07;;;;;;;5.68;4.13;;;31.90;99.30;;;;;;5085369;28;20058;-88
2023/08/24 11:36:46;;;;;;;11.68;3.70;;;32.60;98.70;;;;;;5095967;28;20036;-87
2023/08/24 11:39:22;;;;;;;8.50;3.53;;;33.60;98.90;;;;;;5066892;28;20031;-87
2023/08/24 11:42:09;;;;;;;12.88;4.35;;;33.10;98.30;;;;;;5081875;28;20034;-87
2023/08/24 11:44:48;;;;;;;7.80;4.18;;;33.10;97.70;;;;;;5102502;28;20028;-87
2023/08/24 11:47:15;;;;;;;9.52;3.92;;;32.40;98.60;;;;;;5064224;28;20030;-87
2023/08/24 11:49:41;;;;;;;7.43;4.00;;;32.00;99.50;;;;;;5061830;28;20020;-88
2023/08/24 11:52:08;;;;;;;13.40;4.30;;;31.80;99.90;;;;;;5070046;28;20040;-87
2023/08/24 11:54:33;;;;;;;14.82;3.50;;;32.20;99.60;;;;;;5080016;28;20035;-87
2023/08/24 11:56:59;;;;;;;14.32;4.63;;;32.90;99.90;;;;;;5081049;28;20043;-88
2023/08/24 11:59:26;;;;;;;10.40;4.55;;;32.50;99.70;;;;;;5063386;28;20471;-87
2023/08/24 12:01:55;;;;;;;9.73;4.20;;;32.10;99.90;;;;;;5071348;28;20034;-88
2023/08/24 12:04:21;;;;;;;12.57;3.47;;;32.00;99.90;;;;;;5080902;28;20051;-87
2023/08/24 12:06:46;;;;;;;9.27;3.97;;;32.00;99.90;;;;;;5083295;28;20059;-88
2023/08/24 12:09:12;;;;;;;12.60;4.85;;;31.80;99.90;;;;;;5098436;28;20403;-87
2023/08/24 12:11:38;;;;;;;9.48;4.22;;;31.00;99.90;;;;;;5071100;28;20032;-87
2023/08/24 12:14:06;;;;;;;12.30;4.80;;;30.90;99.90;;;;;;5081669;28;20032;-88
2023/08/24 12:16:33;;;;;;;6.90;4.05;;;31.10;99.90;;;;;;5071271;28;20032;-87
2023/08/24 12:19:02;;;;;;;8.80;4.25;;;31.00;99.90;;;;;;5065561;28;20078;-87
2023/08/24 12:21:29;;;;;;;11.05;4.15;;;30.90;99.90;;;;;;5098249;28;20067;-87
2023/08/24 12:23:59;;;;;;;10.38;3.95;;;31.00;99.90;;;;;;5067200;28;20077;-87
2023/08/24 12:26:28;;;;;;;17.33;4.60;;;30.50;99.90;;;;;;5065770;28;20027;-87
2023/08/24 12:28:59;;;;;;;12.02;4.88;;;30.50;99.90;;;;;;5061727;28;20475;-88
2023/08/24 12:31:29;;;;;;;14.50;4.35;;;30.70;99.90;;;;;;5082638;28;20248;-87
2023/08/24 12:34:04;;;;;;;14.18;4.40;;;30.60;99.90;;;;;;5063940;28;20441;-87
2023/08/24 12:36:32;;;;;;;8.02;3.97;;;30.40;99.90;;;;;;5083867;28;20093;-87
2023/08/24 12:38:58;;;;;;;12.02;4.35;;;30.40;99.90;;;;;;5065701;28;20501;-87
2023/08/24 12:41:24;;;;;;;13.70;4.63;;;30.50;99.90;;;;;;5077815;28;20028;-88
2023/08/24 12:43:53;;;;;;;8.95;4.28;;;30.60;99.90;;;;;;5067960;28;20491;-87
2023/08/24 12:46:19;;;;;;;7.00;4.25;;;30.40;99.90;;;;;;5063109;28;20035;-87
2023/08/24 12:48:46;;;;;;;8.13;4.38;;;30.40;99.90;;;;;;5084944;28;20663;-86
2023/08/24 12:51:12;;;;;;;6.38;4.60;;;30.30;99.90;;;;;;5099466;28;20410;-88